createdAt,value
2022-09-09T00:00:18.655Z,19.40
2022-09-09T00:02:56.180Z,19.50
2022-09-09T00:05:31.918Z,19.30
2022-09-09T00:08:04.873Z,19.40
2022-09-09T00:10:52.122Z,19.60
2022-09-09T00:13:24.910Z,19.70
2022-09-09T00:15:59.881Z,19.50
2022-09-09T00:18:34.732Z,19.30
2022-09-09T00:21:08.460Z,19.40
2022-09-09T00:23:41.287Z,19.40
2022-09-09T00:26:13.833Z,19.00
2022-09-09T00:28:48.598Z,18.90
2022-09-09T00:31:21.067Z,18.80
2022-09-09T00:33:49.983Z,18.90
2022-09-09T00:36:23.733Z,18.90
2022-09-09T00:38:57.201Z,18.90
2022-09-09T00:41:34.514Z,19.00
2022-09-09T00:44:14.537Z,19.10
2022-09-09T00:46:59.540Z,19.20
2022-09-09T00:49:59.237Z,19.40
2022-09-09T00:52:45.754Z,19.30
2022-09-09T00:55:21.486Z,19.40
2022-09-09T00:57:53.857Z,19.60
2022-09-09T01:00:25.191Z,19.80
2022-09-09T01:03:15.531Z,19.60
2022-09-09T01:05:51.773Z,19.80
2022-09-09T01:08:44.843Z,20.00
2022-09-09T01:11:23.427Z,20.00
2022-09-09T01:14:04.084Z,20.10
2022-09-09T01:16:33.458Z,20.10
2022-09-09T01:19:05.085Z,20.00
2022-09-09T01:21:44.705Z,20.00
2022-09-09T01:24:23.279Z,19.90
2022-09-09T01:26:58.835Z,19.80
2022-09-09T01:29:27.058Z,19.80
2022-09-09T01:31:57.597Z,19.40
2022-09-09T01:34:29.294Z,19.20
2022-09-09T01:37:03.260Z,19.30
2022-09-09T01:39:33.540Z,19.30
2022-09-09T01:42:11.258Z,19.60
2022-09-09T01:44:40.350Z,19.20
2022-09-09T01:47:09.046Z,19.30
2022-09-09T01:49:36.867Z,19.30
2022-09-09T01:52:05.413Z,19.30
2022-09-09T01:54:35.319Z,19.30
2022-09-09T01:57:15.741Z,19.30
2022-09-09T01:59:55.442Z,19.20
2022-09-09T02:02:29.178Z,19.20
2022-09-09T02:05:01.021Z,19.40
2022-09-09T02:07:39.205Z,19.30
2022-09-09T02:10:13.218Z,19.40
2022-09-09T02:12:49.805Z,19.40
2022-09-09T02:15:36.526Z,19.50
2022-09-09T02:18:10.269Z,19.30
2022-09-09T02:20:40.256Z,19.50
2022-09-09T02:23:10.986Z,19.60
2022-09-09T02:25:44.395Z,19.80
2022-09-09T02:28:15.536Z,19.50
2022-09-09T02:30:44.606Z,19.30
2022-09-09T02:33:16.195Z,19.20
2022-09-09T02:35:46.025Z,19.10
2022-09-09T02:38:17.054Z,19.40
2022-09-09T02:40:44.847Z,19.50
2022-09-09T02:43:17.254Z,19.40
2022-09-09T02:45:53.587Z,19.20
2022-09-09T02:48:34.701Z,18.70
2022-09-09T02:51:18.609Z,18.60
2022-09-09T02:53:54.905Z,18.70
2022-09-09T02:56:31.450Z,19.20
2022-09-09T02:59:11.939Z,19.20
2022-09-09T03:01:40.948Z,19.10
2022-09-09T03:04:08.824Z,19.20
2022-09-09T03:06:38.664Z,19.10
2022-09-09T03:09:13.538Z,18.90
2022-09-09T03:11:51.995Z,19.00
2022-09-09T03:14:22.205Z,18.80
2022-09-09T03:16:50.341Z,18.90
2022-09-09T03:19:19.440Z,19.20
2022-09-09T03:21:47.235Z,19.30
2022-09-09T03:24:15.261Z,19.10
2022-09-09T03:26:45.527Z,19.10
2022-09-09T03:29:16.562Z,18.80
2022-09-09T03:31:53.271Z,18.90
2022-09-09T03:34:23.154Z,18.80
2022-09-09T03:36:50.976Z,18.90
2022-09-09T03:39:18.771Z,19.00
2022-09-09T03:41:48.806Z,19.20
2022-09-09T03:44:18.682Z,19.20
2022-09-09T03:46:50.135Z,19.10
2022-09-09T03:49:17.936Z,19.00
2022-09-09T03:51:45.764Z,19.10
2022-09-09T03:54:16.044Z,19.20
2022-09-09T03:56:43.861Z,19.10
2022-09-09T03:59:11.722Z,19.10
2022-09-09T04:01:40.266Z,19.20
2022-09-09T04:04:09.848Z,19.20
2022-09-09T04:06:37.719Z,19.10
2022-09-09T04:09:05.513Z,19.20
2022-09-09T04:11:33.423Z,19.00
2022-09-09T04:14:03.938Z,19.00
2022-09-09T04:16:31.752Z,18.80
2022-09-09T04:19:00.631Z,18.90
2022-09-09T04:21:33.179Z,18.90
2022-09-09T04:24:01.027Z,18.40
2022-09-09T04:26:28.858Z,18.30
2022-09-09T04:28:56.707Z,18.60
2022-09-09T04:31:25.308Z,18.90
2022-09-09T04:33:55.891Z,18.90
2022-09-09T04:36:26.405Z,18.80
2022-09-09T04:38:55.581Z,19.00
2022-09-09T04:41:23.476Z,19.00
2022-09-09T04:43:51.312Z,19.10
2022-09-09T04:46:21.344Z,19.20
2022-09-09T04:48:52.573Z,19.00
2022-09-09T04:51:23.230Z,19.20
2022-09-09T04:53:51.956Z,19.20
2022-09-09T04:56:21.690Z,19.30
2022-09-09T04:58:52.571Z,19.40
2022-09-09T05:01:22.821Z,19.30
2022-09-09T05:03:50.863Z,19.20
2022-09-09T05:06:20.653Z,19.10
2022-09-09T05:08:50.234Z,19.30
2022-09-09T05:11:20.180Z,19.10
2022-09-09T05:13:54.881Z,19.30
2022-09-09T05:16:25.485Z,19.10
2022-09-09T05:18:56.214Z,18.90
2022-09-09T05:21:27.266Z,18.90
2022-09-09T05:23:55.048Z,19.00
2022-09-09T05:26:27.401Z,19.00
2022-09-09T05:28:56.578Z,18.70
2022-09-09T05:31:30.966Z,19.00
2022-09-09T05:34:01.280Z,19.10
2022-09-09T05:36:29.111Z,19.30
2022-09-09T05:38:56.897Z,19.40
2022-09-09T05:41:24.961Z,19.40
2022-09-09T05:43:55.271Z,19.60
2022-09-09T05:46:28.169Z,19.80
2022-09-09T05:48:56.249Z,19.50
2022-09-09T05:51:28.218Z,19.50
2022-09-09T05:53:59.361Z,19.50
2022-09-09T05:56:29.160Z,19.60
2022-09-09T05:58:57.961Z,19.60
2022-09-09T06:01:28.490Z,19.60
2022-09-09T06:03:57.054Z,19.70
2022-09-09T06:06:27.538Z,19.50
2022-09-09T06:08:57.235Z,19.60
2022-09-09T06:11:27.278Z,19.80
2022-09-09T06:13:55.541Z,19.90
2022-09-09T06:16:25.249Z,19.80
2022-09-09T06:18:58.758Z,19.70
2022-09-09T06:21:31.591Z,19.30
2022-09-09T06:24:01.613Z,19.40
2022-09-09T06:26:31.691Z,19.40
2022-09-09T06:29:00.183Z,19.10
2022-09-09T06:31:31.342Z,19.20
2022-09-09T06:34:03.436Z,18.70
2022-09-09T06:36:32.889Z,18.70
2022-09-09T06:39:01.806Z,18.80
2022-09-09T06:41:31.377Z,19.00
2022-09-09T06:43:59.742Z,19.20
2022-09-09T06:46:29.450Z,19.30
2022-09-09T06:49:11.528Z,19.40
2022-09-09T06:51:43.465Z,19.40
2022-09-09T06:54:12.262Z,19.30
2022-09-09T06:56:50.068Z,19.40
2022-09-09T06:59:17.869Z,19.50
2022-09-09T07:01:46.321Z,19.40
2022-09-09T07:04:15.886Z,19.10
2022-09-09T07:06:45.336Z,19.10
2022-09-09T07:09:17.571Z,19.10
2022-09-09T07:11:46.764Z,18.90
2022-09-09T07:14:18.047Z,18.90
2022-09-09T07:16:47.194Z,18.90
2022-09-09T07:19:17.381Z,18.80
2022-09-09T07:21:45.330Z,18.80
2022-09-09T07:24:16.574Z,19.00
2022-09-09T07:26:47.282Z,19.10
2022-09-09T07:29:20.012Z,19.00
2022-09-09T07:31:49.219Z,19.20
2022-09-09T07:34:19.399Z,19.30
2022-09-09T07:36:47.640Z,19.20
2022-09-09T07:39:18.269Z,19.40
2022-09-09T07:41:47.753Z,19.10
2022-09-09T07:44:22.277Z,19.30
2022-09-09T07:46:52.462Z,19.30
2022-09-09T07:49:29.654Z,19.00
2022-09-09T07:52:01.999Z,19.10
2022-09-09T07:54:32.954Z,19.30
2022-09-09T07:57:00.862Z,19.30
2022-09-09T07:59:31.540Z,19.30
2022-09-09T08:01:59.469Z,19.50
2022-09-09T08:04:29.116Z,19.40
2022-09-09T08:06:59.277Z,19.60
2022-09-09T08:09:29.568Z,19.20
2022-09-09T08:11:59.137Z,19.40
2022-09-09T08:14:32.753Z,19.50
2022-09-09T08:17:00.567Z,19.20
2022-09-09T08:19:37.421Z,19.30
2022-09-09T08:22:05.408Z,19.60
2022-09-09T08:24:33.218Z,19.80
2022-09-09T08:27:01.221Z,19.80
2022-09-09T08:29:34.426Z,20.00
2022-09-09T08:32:02.320Z,20.00
2022-09-09T08:34:34.947Z,19.70
2022-09-09T08:37:08.496Z,19.50
2022-09-09T08:39:36.377Z,19.30
2022-09-09T08:42:24.256Z,19.30
2022-09-09T08:45:04.323Z,19.50
2022-09-09T08:47:50.239Z,19.60
2022-09-09T08:50:25.514Z,19.40
2022-09-09T08:52:58.223Z,19.40
2022-09-09T08:55:37.607Z,19.60
2022-09-09T08:58:14.898Z,19.90
2022-09-09T09:01:01.020Z,20.10
2022-09-09T09:03:37.394Z,20.00
2022-09-09T09:06:23.993Z,20.00
2022-09-09T09:09:12.866Z,20.20
2022-09-09T09:11:43.393Z,20.10
2022-09-09T09:14:17.349Z,20.30
2022-09-09T09:16:52.857Z,20.40
2022-09-09T09:19:23.714Z,20.40
2022-09-09T09:22:00.436Z,20.30
2022-09-09T09:24:39.536Z,20.60
2022-09-09T09:27:15.302Z,20.90
2022-09-09T09:30:10.876Z,20.60
2022-09-09T09:32:43.409Z,20.80
2022-09-09T09:35:14.932Z,20.80
2022-09-09T09:40:35.014Z,21.20
2022-09-09T09:43:07.250Z,21.10
2022-09-09T09:45:43.920Z,21.10
2022-09-09T09:48:14.384Z,20.80
2022-09-09T09:50:50.839Z,20.90
2022-09-09T09:53:26.504Z,20.80
2022-09-09T09:55:58.130Z,20.80
2022-09-09T09:58:28.888Z,20.90
2022-09-09T10:00:56.834Z,20.50
2022-09-09T10:03:26.816Z,20.80
2022-09-09T10:05:55.797Z,20.90
2022-09-09T10:08:25.490Z,21.00
2022-09-09T10:11:18.023Z,21.10
2022-09-09T10:13:58.664Z,20.70
2022-09-09T10:16:42.092Z,20.70
2022-09-09T10:19:15.991Z,20.40
2022-09-09T10:22:09.507Z,20.50
2022-09-09T10:25:13.264Z,20.70
2022-09-09T10:27:57.049Z,20.90
2022-09-09T10:30:39.733Z,21.40
2022-09-09T10:33:12.645Z,21.10
2022-09-09T10:35:48.583Z,21.10
2022-09-09T10:38:19.357Z,21.20
2022-09-09T10:41:15.757Z,21.10
2022-09-09T10:44:07.219Z,21.30
2022-09-09T10:46:46.569Z,21.00
2022-09-09T10:49:37.438Z,21.30
2022-09-09T10:52:15.113Z,21.50
2022-09-09T10:54:56.043Z,21.70
2022-09-09T10:57:32.958Z,21.70
2022-09-09T11:00:05.593Z,21.80
2022-09-09T11:02:34.908Z,22.10
2022-09-09T11:05:06.272Z,22.10
2022-09-09T11:07:40.323Z,22.10
2022-09-09T11:10:19.908Z,22.10
2022-09-09T11:12:55.223Z,22.50
2022-09-09T11:15:32.917Z,22.10
2022-09-09T11:18:07.042Z,22.40
2022-09-09T11:20:35.808Z,22.60
2022-09-09T11:23:07.535Z,22.70
2022-09-09T11:25:44.678Z,22.50
2022-09-09T11:28:32.113Z,22.70
2022-09-09T11:31:18.021Z,23.20
2022-09-09T11:34:03.128Z,23.30
2022-09-09T11:37:01.932Z,22.90
2022-09-09T11:40:06.038Z,22.40
2022-09-09T11:42:33.983Z,22.60
2022-09-09T11:45:15.808Z,22.70
2022-09-09T11:47:54.485Z,22.50
2022-09-09T11:50:41.100Z,22.60
2022-09-09T11:53:25.547Z,22.50
2022-09-09T11:56:13.903Z,22.40
2022-09-09T11:58:58.233Z,22.50
2022-09-09T12:01:39.651Z,22.70
2022-09-09T12:04:38.607Z,22.60
2022-09-09T12:07:25.389Z,22.60
2022-09-09T12:10:09.066Z,22.50
2022-09-09T12:12:44.086Z,22.50
2022-09-09T12:15:37.099Z,22.20
2022-09-09T12:18:23.464Z,21.80
2022-09-09T12:21:03.309Z,21.80
2022-09-09T12:23:40.401Z,21.70
2022-09-09T12:26:24.052Z,21.90
2022-09-09T12:29:11.530Z,21.60
2022-09-09T12:31:45.964Z,21.50
2022-09-09T12:34:18.837Z,21.30
2022-09-09T12:36:53.961Z,20.90
2022-09-09T12:39:40.862Z,20.70
2022-09-09T12:42:19.430Z,20.20
2022-09-09T12:45:11.935Z,20.00
2022-09-09T12:47:46.778Z,20.20
2022-09-09T12:50:22.633Z,20.40
2022-09-09T12:52:52.384Z,20.80
2022-09-09T12:55:22.555Z,21.10
2022-09-09T12:57:52.497Z,21.20
2022-09-09T13:00:23.552Z,21.40
2022-09-09T13:02:59.901Z,21.80
2022-09-09T13:05:30.912Z,22.10
2022-09-09T13:08:03.776Z,22.00
2022-09-09T13:10:49.759Z,22.00
2022-09-09T13:13:36.690Z,21.90
2022-09-09T13:16:08.101Z,21.80
2022-09-09T13:18:38.961Z,21.50
2022-09-09T13:21:08.484Z,21.50
2022-09-09T13:23:38.495Z,21.20
2022-09-09T13:26:25.730Z,20.80
2022-09-09T13:28:57.280Z,20.70
2022-09-09T13:31:29.486Z,21.00
2022-09-09T13:33:57.315Z,21.50
2022-09-09T13:36:35.724Z,21.50
2022-09-09T13:39:16.966Z,21.50
2022-09-09T13:41:46.369Z,21.90
2022-09-09T13:44:23.853Z,22.30
2022-09-09T13:47:06.774Z,22.20
2022-09-09T13:49:46.618Z,22.20
2022-09-09T13:52:17.769Z,21.60
2022-09-09T13:54:49.670Z,21.80
2022-09-09T13:57:21.826Z,21.90
2022-09-09T14:00:06.457Z,21.70
2022-09-09T14:02:39.576Z,21.20
2022-09-09T14:05:12.861Z,21.10
2022-09-09T14:07:44.235Z,20.50
2022-09-09T14:10:13.363Z,20.30
2022-09-09T14:12:41.206Z,19.90
2022-09-09T14:15:11.739Z,19.90
2022-09-09T14:17:39.833Z,20.00
2022-09-09T14:20:12.740Z,19.90
2022-09-09T14:22:41.894Z,19.90
2022-09-09T14:25:12.902Z,20.20
2022-09-09T14:27:41.337Z,20.40
2022-09-09T14:30:10.306Z,20.60
2022-09-09T14:32:40.933Z,20.90
2022-09-09T14:35:09.600Z,21.30
2022-09-09T14:37:37.418Z,21.70
2022-09-09T14:40:08.365Z,21.70
2022-09-09T14:42:41.286Z,22.20
2022-09-09T14:45:10.508Z,22.40
2022-09-09T14:47:39.004Z,22.30
2022-09-09T14:50:08.982Z,22.10
2022-09-09T14:52:37.263Z,21.80
2022-09-09T14:55:12.776Z,21.80
2022-09-09T14:57:41.130Z,21.90
2022-09-09T15:00:10.846Z,21.80
2022-09-09T15:02:39.193Z,22.10
2022-09-09T15:05:12.723Z,21.60
2022-09-09T15:07:40.871Z,21.50
2022-09-09T15:10:11.799Z,21.40
2022-09-09T15:12:39.738Z,21.20
2022-09-09T15:15:08.305Z,21.00
2022-09-09T15:17:37.005Z,21.10
2022-09-09T15:20:06.616Z,21.40
2022-09-09T15:22:34.731Z,21.60
2022-09-09T15:25:02.570Z,21.50
2022-09-09T15:27:32.333Z,21.50
2022-09-09T15:30:01.744Z,21.70
2022-09-09T15:32:30.107Z,21.30
2022-09-09T15:34:57.917Z,21.20
2022-09-09T15:37:27.874Z,20.80
2022-09-09T15:39:55.744Z,20.60
2022-09-09T15:42:23.640Z,20.30
2022-09-09T15:45:02.618Z,19.80
2022-09-09T15:47:32.527Z,19.10
2022-09-09T15:50:00.342Z,18.40
2022-09-09T15:52:28.334Z,18.70
2022-09-09T15:54:56.169Z,18.90
2022-09-09T15:57:31.164Z,18.90
2022-09-09T16:00:01.073Z,18.60
2022-09-09T16:02:28.928Z,18.80
2022-09-09T16:05:00.486Z,19.00
2022-09-09T16:07:28.292Z,19.30
2022-09-09T16:09:56.055Z,19.70
2022-09-09T16:12:23.823Z,19.80
2022-09-09T16:14:51.587Z,19.80
2022-09-09T16:17:21.440Z,20.20
2022-09-09T16:19:49.269Z,20.40
2022-09-09T16:22:18.823Z,20.60
2022-09-09T16:24:47.008Z,20.70
2022-09-09T16:27:15.002Z,20.90
2022-09-09T16:29:42.798Z,20.90
2022-09-09T16:32:11.191Z,21.00
2022-09-09T16:34:41.076Z,21.00
2022-09-09T16:37:08.906Z,21.10
2022-09-09T16:39:39.121Z,21.10
2022-09-09T16:42:07.220Z,20.90
2022-09-09T16:44:34.994Z,20.90
2022-09-09T16:47:02.784Z,20.90
2022-09-09T16:49:30.580Z,20.90
2022-09-09T16:52:07.373Z,20.80
2022-09-09T16:54:35.170Z,20.60
2022-09-09T16:57:03.020Z,20.50
2022-09-09T16:59:34.032Z,20.20
2022-09-09T17:02:04.301Z,20.00
2022-09-09T17:04:32.887Z,19.80
2022-09-09T17:07:02.950Z,19.60
2022-09-09T17:09:40.847Z,19.50
2022-09-09T17:12:09.356Z,19.40
2022-09-09T17:14:37.158Z,19.30
2022-09-09T17:17:24.696Z,19.40
2022-09-09T17:19:53.199Z,19.50
2022-09-09T17:22:28.587Z,19.50
2022-09-09T17:24:59.460Z,19.80
2022-09-09T17:27:27.386Z,20.00
2022-09-09T17:29:55.241Z,19.90
2022-09-09T17:32:26.212Z,20.00
2022-09-09T17:34:54.334Z,20.10
2022-09-09T17:37:26.620Z,19.80
2022-09-09T17:39:54.477Z,19.50
2022-09-09T17:42:22.844Z,19.30
2022-09-09T17:44:50.642Z,19.40
2022-09-09T17:47:18.508Z,19.60
2022-09-09T17:49:51.404Z,19.80
2022-09-09T17:52:21.544Z,20.00
2022-09-09T17:54:51.388Z,20.10
2022-09-09T17:57:20.005Z,20.00
2022-09-09T18:00:03.648Z,19.70
2022-09-09T18:02:31.524Z,19.40
2022-09-09T18:05:04.836Z,19.40
2022-09-09T18:07:32.654Z,19.60
2022-09-09T18:10:04.659Z,19.70
2022-09-09T18:12:35.534Z,19.40
2022-09-09T18:15:04.232Z,19.50
2022-09-09T18:17:34.907Z,19.60
2022-09-09T18:20:03.246Z,19.40
2022-09-09T18:22:31.709Z,19.40
2022-09-09T18:25:05.626Z,19.50
2022-09-09T18:27:36.199Z,19.50
2022-09-09T18:30:04.623Z,19.20
2022-09-09T18:32:34.762Z,19.10
2022-09-09T18:35:02.547Z,19.00
2022-09-09T18:37:34.027Z,18.90
2022-09-09T18:40:07.198Z,18.60
2022-09-09T18:42:37.459Z,18.60
2022-09-09T18:45:06.039Z,18.90
2022-09-09T18:47:34.583Z,18.70
2022-09-09T18:50:02.407Z,18.70
2022-09-09T18:52:30.213Z,18.90
2022-09-09T18:55:00.913Z,18.90
2022-09-09T18:57:34.529Z,18.90
2022-09-09T19:00:10.019Z,18.50
2022-09-09T19:02:38.856Z,18.30
2022-09-09T19:05:07.256Z,18.50
2022-09-09T19:07:39.560Z,18.60
2022-09-09T19:10:08.123Z,18.60
2022-09-09T19:12:37.511Z,18.40
2022-09-09T19:15:06.188Z,18.10
2022-09-09T19:17:35.362Z,18.00
2022-09-09T19:20:09.910Z,18.00
2022-09-09T19:22:39.804Z,18.00
2022-09-09T19:25:08.630Z,18.20
2022-09-09T19:27:37.737Z,18.20
2022-09-09T19:30:06.355Z,18.10
2022-09-09T19:32:52.613Z,17.70
2022-09-09T19:35:21.230Z,17.70
2022-09-09T19:37:51.170Z,18.00
2022-09-09T19:40:22.154Z,18.20
2022-09-09T19:42:54.115Z,18.30
2022-09-09T19:45:22.351Z,18.20
2022-09-09T19:47:50.510Z,18.10
2022-09-09T19:50:19.311Z,18.00
2022-09-09T19:52:49.326Z,18.30
2022-09-09T19:55:17.296Z,18.30
2022-09-09T19:57:45.084Z,18.20
2022-09-09T20:00:19.115Z,18.20
2022-09-09T20:02:58.148Z,18.20
2022-09-09T20:05:37.070Z,18.30
2022-09-09T20:08:10.291Z,18.40
2022-09-09T20:10:38.179Z,18.20
2022-09-09T20:13:06.007Z,18.10
2022-09-09T20:15:42.338Z,18.20
2022-09-09T20:18:14.081Z,18.30
2022-09-09T20:20:46.129Z,18.30
2022-09-09T20:23:14.328Z,18.40
2022-09-09T20:25:45.301Z,18.50
2022-09-09T20:28:15.467Z,18.60
2022-09-09T20:30:44.847Z,18.40
2022-09-09T20:33:13.659Z,18.20
2022-09-09T20:35:41.464Z,18.20
2022-09-09T20:38:09.242Z,18.20
2022-09-09T20:40:38.067Z,18.20
2022-09-09T20:43:08.516Z,18.00
2022-09-09T20:45:40.686Z,18.20
2022-09-09T20:48:09.841Z,18.20
2022-09-09T20:50:37.948Z,18.40
2022-09-09T20:53:06.200Z,18.30
2022-09-09T20:55:37.500Z,18.40
2022-09-09T20:58:05.286Z,18.40
2022-09-09T21:00:33.090Z,18.40
2022-09-09T21:03:02.237Z,18.40
2022-09-09T21:05:34.028Z,18.50
2022-09-09T21:08:04.315Z,18.20
2022-09-09T21:10:32.356Z,18.10
2022-09-09T21:13:01.361Z,18.30
2022-09-09T21:15:29.146Z,18.50
2022-09-09T21:17:56.973Z,18.40
2022-09-09T21:20:31.921Z,18.00
2022-09-09T21:22:59.767Z,18.00
2022-09-09T21:25:27.556Z,18.10
2022-09-09T21:27:55.393Z,18.20
2022-09-09T21:30:32.911Z,18.30
2022-09-09T21:33:12.198Z,18.30
2022-09-09T21:35:44.469Z,18.10
2022-09-09T21:38:15.183Z,18.30
2022-09-09T21:40:43.216Z,18.20
2022-09-09T21:43:13.698Z,18.20
2022-09-09T21:45:49.479Z,17.90
2022-09-09T21:48:26.064Z,18.00
2022-09-09T21:50:55.222Z,18.20
2022-09-09T21:53:25.166Z,18.30
2022-09-09T21:55:53.012Z,18.20
2022-09-09T21:58:20.866Z,18.10
2022-09-09T22:00:48.746Z,18.20
2022-09-09T22:03:21.751Z,18.20
2022-09-09T22:05:53.737Z,18.40
2022-09-09T22:08:25.653Z,18.20
2022-09-09T22:10:53.623Z,18.50
2022-09-09T22:13:23.581Z,18.30
2022-09-09T22:15:51.479Z,18.20
2022-09-09T22:18:28.364Z,18.50
2022-09-09T22:20:56.183Z,18.50
2022-09-09T22:23:25.427Z,18.60
2022-09-09T22:25:54.873Z,18.40
2022-09-09T22:28:29.811Z,18.30
2022-09-09T22:30:57.718Z,18.40
2022-09-09T22:33:27.182Z,18.50
2022-09-09T22:36:02.783Z,18.50
2022-09-09T22:38:36.340Z,18.50
2022-09-09T22:41:08.387Z,18.70
2022-09-09T22:43:36.494Z,18.80
2022-09-09T22:46:07.503Z,18.60
2022-09-09T22:48:36.763Z,18.70
2022-09-09T22:51:06.000Z,18.80
2022-09-09T22:53:36.046Z,18.40
2022-09-09T22:56:13.193Z,18.40
2022-09-09T22:58:41.017Z,18.10
2022-09-09T23:01:12.173Z,18.10
2022-09-09T23:03:45.335Z,18.00
2022-09-09T23:06:16.893Z,18.00
2022-09-09T23:08:46.561Z,17.80
2022-09-09T23:11:17.243Z,18.00
2022-09-09T23:13:55.260Z,18.20
2022-09-09T23:16:25.223Z,18.20
2022-09-09T23:18:56.908Z,18.40
2022-09-09T23:21:26.272Z,18.60
2022-09-09T23:23:57.270Z,18.30
2022-09-09T23:26:31.723Z,18.20
2022-09-09T23:29:04.615Z,17.90
2022-09-09T23:31:36.361Z,18.00
2022-09-09T23:34:07.047Z,18.10
2022-09-09T23:36:35.270Z,17.80
2022-09-09T23:39:11.255Z,17.90
2022-09-09T23:41:40.213Z,18.10
2022-09-09T23:44:11.589Z,18.20
2022-09-09T23:46:39.505Z,18.00
2022-09-09T23:49:09.522Z,18.00
2022-09-09T23:51:38.309Z,18.00
2022-09-09T23:54:10.704Z,18.20
2022-09-09T23:56:42.257Z,18.30
2022-09-09T23:59:14.395Z,18.30
